Time;durP1;ratioP1;P1;durP2;ratioP2;P2;SDS_P1;SDS_P2;PMS_P1;PMS_P2;Temp;Humidity;BMP_temperature;BMP_pressure;BME280_temperature;BME280_humidity;BME280_pressure;Samples;Min_cycle;Max_cycle;Signal;HPM_P1;HPM_P2
2023/04/05 00:00:09;;;;;;;20.90;9.10;;;;;;;-2.82;100.00;96232.38;1026839;28;20029;-70
2023/04/05 00:00:39;;;;;;;21.27;8.63;;;;;;;-2.76;100.00;96242.00;1022712;28;20035;-68
2023/04/05 00:01:11;;;;;;;20.13;10.00;;;;;;;-2.75;100.00;96241.06;1026547;28;20034;-68
2023/04/05 00:01:41;;;;;;;29.50;10.75;;;;;;;-2.80;100.00;96234.81;1019663;29;20315;-68
2023/04/05 00:02:12;;;;;;;32.57;11.57;;;;;;;-2.76;100.00;96236.84;1020036;29;20055;-68
2023/04/05 00:02:43;;;;;;;28.67;11.00;;;;;;;-2.80;100.00;96232.22;1019842;29;20126;-69
2023/04/05 00:03:13;;;;;;;41.57;14.50;;;;;;;-2.73;100.00;96241.66;1027843;28;20011;-70
2023/04/05 00:03:46;;;;;;;46.80;16.87;;;;;;;-2.74;100.00;96240.06;1019466;29;20048;-69
2023/04/05 00:04:19;;;;;;;50.88;18.65;;;;;;;-2.73;100.00;96236.53;1019363;29;20028;-68
2023/04/05 00:04:50;;;;;;;59.90;20.75;;;;;;;-2.75;100.00;96240.22;1018055;29;20032;-68
2023/04/05 00:05:28;;;;;;;63.42;20.40;;;;;;;-2.77;100.00;96229.34;1020288;28;20070;-70
2023/04/05 00:05:59;;;;;;;55.88;19.02;;;;;;;-2.78;100.00;96233.69;1018595;29;20594;-68
2023/04/05 00:06:29;;;;;;;66.07;21.73;;;;;;;-2.74;100.00;96234.94;1018608;29;20115;-69
2023/04/05 00:07:01;;;;;;;71.30;21.00;;;;;;;-2.76;100.00;96234.28;1020797;29;20024;-68
2023/04/05 00:07:33;;;;;;;67.47;21.67;;;;;;;-2.74;100.00;96234.13;1022484;29;20030;-69
2023/04/05 00:08:12;;;;;;;65.65;21.45;;;;;;;-2.77;100.00;96230.13;1018499;29;20039;-68
2023/04/05 00:08:48;;;;;;;65.47;19.45;;;;;;;-2.72;100.00;96235.56;1022405;28;20055;-68
2023/04/05 00:09:19;;;;;;;65.18;20.00;;;;;;;-2.77;100.00;96230.13;1020752;29;20080;-68
2023/04/05 00:09:50;;;;;;;65.87;20.47;;;;;;;-2.74;100.00;96234.94;1014871;29;20168;-71
2023/04/05 00:10:20;;;;;;;70.60;21.53;;;;;;;-2.75;100.00;96243.63;1013346;29;20810;-68
2023/04/05 00:10:51;;;;;;;62.20;20.40;;;;;;;-2.74;100.00;96234.94;1014822;29;20032;-68
2023/04/05 00:11:22;;;;;;;57.17;19.73;;;;;;;-2.80;100.00;96224.53;1018779;28;20042;-69
2023/04/05 00:11:52;;;;;;;64.43;19.53;;;;;;;-2.74;100.00;96229.81;1018551;29;20482;-68
2023/04/05 00:12:22;;;;;;;61.73;19.73;;;;;;;-2.73;100.00;96233.16;1015079;29;20096;-70
2023/04/05 00:12:53;;;;;;;53.47;19.17;;;;;;;-2.79;100.00;96231.25;1010756;29;20044;-68
2023/04/05 00:13:24;;;;;;;52.73;17.37;;;;;;;-2.73;100.00;96228.81;1018669;29;20409;-71
2023/04/05 00:13:55;;;;;;;49.20;16.50;;;;;;;-2.72;100.00;96234.75;1018851;29;20122;-68
2023/04/05 00:14:26;;;;;;;61.85;19.40;;;;;;;-2.72;100.00;96234.75;1014568;29;20126;-71
2023/04/05 00:14:56;;;;;;;62.17;19.97;;;;;;;-2.73;100.00;96233.97;1014734;29;20032;-68
2023/04/05 00:15:27;;;;;;;58.83;20.37;;;;;;;-2.76;100.00;96226.59;1018245;29;20035;-68
2023/04/05 00:15:59;;;;;;;65.93;21.93;;;;;;;-2.72;100.00;96232.97;1026369;28;20035;-68
2023/04/05 00:16:30;;;;;;;63.15;21.05;;;;;;;-2.70;100.00;96230.28;1026740;28;20046;-69
2023/04/05 00:17:00;;;;;;;62.00;18.97;;;;;;;-2.73;100.00;96226.25;1018784;29;20040;-68
2023/04/05 00:17:31;;;;;;;49.40;17.10;;;;;;;-2.72;100.00;96235.56;1019317;28;20031;-68
2023/04/05 00:18:02;;;;;;;52.90;17.23;;;;;;;-2.76;100.00;96220.66;1022309;29;20035;-71
2023/04/05 00:18:34;;;;;;;40.40;15.97;;;;;;;-2.78;100.00;96223.41;1022808;28;20142;-68
2023/04/05 00:19:04;;;;;;;36.97;13.95;;;;;;;-2.71;100.00;96232.03;1026928;28;20205;-69
2023/04/05 00:19:36;;;;;;;24.23;9.00;;;;;;;-2.74;100.00;96224.66;1026718;28;20034;-68
2023/04/05 00:20:09;;;;;;;19.67;8.65;;;;;;;-2.71;100.00;96229.47;1026067;28;20031;-68
2023/04/05 00:20:39;;;;;;;19.10;8.18;;;;;;;-2.71;100.00;96226.09;1022793;28;20049;-68
2023/04/05 00:21:10;;;;;;;18.70;7.23;;;;;;;-2.69;100.00;96230.09;1021763;28;20035;-70
2023/04/05 00:21:40;;;;;;;13.93;7.50;;;;;;;-2.71;100.00;96224.34;1026883;28;20499;-68
2023/04/05 00:22:11;;;;;;;10.87;6.47;;;;;;;-2.74;100.00;96218.72;1030783;28;20034;-68
2023/04/05 00:22:45;;;;;;;13.97;6.90;;;;;;;-2.68;100.00;96224.00;1030411;28;20097;-68
2023/04/05 00:23:16;;;;;;;12.50;6.32;;;;;;;-2.68;100.00;96224.00;1030728;28;20065;-68
2023/04/05 00:23:50;;;;;;;13.15;7.18;;;;;;;-2.73;100.00;96218.56;1026342;28;20042;-69
2023/04/05 00:24:20;;;;;;;14.18;7.03;;;;;;;-2.69;100.00;96222.38;1026321;28;20125;-70
2023/04/05 00:24:51;;;;;;;15.57;7.47;;;;;;;-2.68;100.00;96226.56;1018163;29;20075;-68
2023/04/05 00:25:21;;;;;;;15.43;6.20;;;;;;;-2.75;100.00;96210.22;1019081;29;20031;-68
2023/04/05 00:25:52;;;;;;;14.97;6.43;;;;;;;-2.68;100.00;96225.78;1022687;29;20141;-68
2023/04/05 00:26:22;;;;;;;12.83;7.73;;;;;;;-2.74;100.00;96219.53;1026104;28;20033;-69
2023/04/05 00:26:52;;;;;;;15.60;6.63;;;;;;;-2.72;100.00;96225.28;1014515;29;20032;-69
2023/04/05 00:27:23;;;;;;;11.47;6.17;;;;;;;-2.71;100.00;96224.34;1010964;29;20032;-68
2023/04/05 00:27:53;;;;;;;13.90;6.73;;;;;;;-2.73;100.00;96226.25;1014384;29;20952;-68
2023/04/05 00:28:24;;;;;;;12.23;6.27;;;;;;;-2.73;100.00;96220.31;1014860;28;20382;-68
2023/04/05 00:28:54;;;;;;;15.10;7.43;;;;;;;-2.74;100.00;96224.66;1026449;28;20039;-69
2023/04/05 00:29:25;;;;;;;15.37;6.87;;;;;;;-2.72;100.00;96225.28;1026308;28;20037;-69
2023/04/05 00:29:55;;;;;;;17.43;7.33;;;;;;;-2.73;100.00;96221.13;1022580;29;20055;-68
2023/04/05 00:30:27;;;;;;;20.97;8.77;;;;;;;-2.79;100.00;96214.09;1014534;29;20031;-68
2023/04/05 00:30:58;;;;;;;21.90;8.93;;;;;;;-2.74;100.00;96229.81;1010897;29;20095;-69
2023/04/05 00:31:29;;;;;;;15.33;7.70;;;;;;;-2.74;100.00;96226.44;1010965;29;20530;-70
2023/04/05 00:32:00;;;;;;;27.33;9.50;;;;;;;-2.75;100.00;96225.66;1015064;29;20028;-68
2023/04/05 00:32:31;;;;;;;18.83;9.07;;;;;;;-2.76;100.00;96221.44;1018537;29;20307;-69
2023/04/05 00:33:01;;;;;;;25.00;9.55;;;;;;;-2.74;100.00;96224.66;1022538;28;20035;-69
2023/04/05 00:33:32;;;;;;;22.57;8.93;;;;;;;-2.73;100.00;96225.47;1018331;29;20469;-68
2023/04/05 00:34:04;;;;;;;28.90;11.90;;;;;;;-2.73;100.00;96225.47;1018612;29;20427;-69
2023/04/05 00:34:35;;;;;;;29.85;11.50;;;;;;;-2.74;100.00;96216.16;1019366;28;20019;-68
2023/04/05 00:35:06;;;;;;;29.50;10.20;;;;;;;-2.72;100.00;96227.84;1022215;29;20154;-68
2023/04/05 00:35:36;;;;;;;38.50;14.00;;;;;;;-2.71;100.00;96224.34;1023127;28;20119;-68
2023/04/05 00:36:11;;;;;;;33.03;11.73;;;;;;;-2.71;100.00;96219.19;1022219;28;20044;-69
2023/04/05 00:36:41;;;;;;;33.58;12.25;;;;;;;-2.70;100.00;96227.69;1027131;28;20110;-68
2023/04/05 00:37:11;;;;;;;29.10;9.67;;;;;;;-2.79;100.00;96206.38;1030734;28;20034;-69
2023/04/05 00:37:42;;;;;;;27.83;10.93;;;;;;;-2.72;100.00;96222.72;1027018;28;20062;-68
2023/04/05 00:38:12;;;;;;;25.33;10.30;;;;;;;-2.72;100.00;96222.72;1030438;28;20376;-69
2023/04/05 00:38:43;;;;;;;24.17;8.93;;;;;;;-2.72;100.00;96220.16;1030443;28;20038;-69
2023/04/05 00:39:14;;;;;;;25.92;10.82;;;;;;;-2.73;100.00;96225.47;1026452;28;20037;-68
2023/04/05 00:39:44;;;;;;;29.03;11.47;;;;;;;-2.72;100.00;96220.16;1030568;28;20029;-68
2023/04/05 00:40:15;;;;;;;29.50;11.17;;;;;;;-2.71;100.00;96219.19;1030040;28;20022;-69
2023/04/05 00:40:45;;;;;;;24.40;11.37;;;;;;;-2.74;100.00;96219.53;1022498;28;20775;-69
2023/04/05 00:41:16;;;;;;;28.87;11.03;;;;;;;-2.73;100.00;96217.75;1026510;28;20404;-68
2023/04/05 00:41:46;;;;;;;29.00;10.57;;;;;;;-2.68;100.00;96223.22;1022413;29;20023;-69
2023/04/05 00:42:17;;;;;;;27.07;10.53;;;;;;;-2.75;100.00;96210.22;1022586;29;20038;-71
2023/04/05 00:42:47;;;;;;;29.37;10.90;;;;;;;-2.70;100.00;96222.56;1022604;28;20131;-68
2023/04/05 00:43:17;;;;;;;21.63;10.70;;;;;;;-2.69;100.00;96219.81;1026359;28;20629;-69
2023/04/05 00:43:48;;;;;;;23.20;10.30;;;;;;;-2.70;100.00;96220.78;1030710;28;20049;-67
2023/04/05 00:44:18;;;;;;;22.87;9.10;;;;;;;-2.72;100.00;96217.56;1030037;28;20041;-68
2023/04/05 00:44:49;;;;;;;22.27;9.67;;;;;;;-2.70;100.00;96217.44;1027089;28;20037;-69
2023/04/05 00:45:19;;;;;;;21.93;8.83;;;;;;;-2.74;100.00;96214.41;1026710;28;20575;-69
2023/04/05 00:45:50;;;;;;;15.63;6.70;;;;;;;-2.70;100.00;96225.13;1026313;28;20021;-68
2023/04/05 00:46:20;;;;;;;15.70;7.43;;;;;;;-2.70;100.00;96220.78;1026361;28;20023;-69
2023/04/05 00:46:51;;;;;;;17.13;8.57;;;;;;;-2.70;100.00;96220.78;1026308;28;20027;-69
2023/04/05 00:47:21;;;;;;;10.17;6.23;;;;;;;-2.71;100.00;96215.84;1014423;29;20129;-69
2023/04/05 00:47:52;;;;;;;13.37;6.13;;;;;;;-2.69;100.00;96227.53;1022556;29;20032;-68
2023/04/05 00:48:23;;;;;;;11.00;5.77;;;;;;;-2.67;100.00;96219.66;1021995;29;20166;-68
2023/04/05 00:48:53;;;;;;;12.33;6.33;;;;;;;-2.68;100.00;96218.06;1022235;29;20031;-71
2023/04/05 00:49:24;;;;;;;13.43;6.17;;;;;;;-2.67;100.00;96217.88;1018809;29;20019;-70
2023/04/05 00:49:54;;;;;;;10.33;5.63;;;;;;;-2.68;100.00;96218.06;1014440;29;20028;-68
2023/04/05 00:50:28;;;;;;;11.70;5.10;;;;;;;-2.73;100.00;96210.84;1014771;29;20659;-68
2023/04/05 00:50:59;;;;;;;13.82;6.10;;;;;;;-2.85;100.00;96192.47;1015018;29;20024;-68
2023/04/05 00:51:31;;;;;;;10.07;5.17;;;;;;;-2.69;100.00;96212.09;1022167;28;20042;-68
2023/04/05 00:52:02;;;;;;;7.28;4.80;;;;;;;-2.66;100.00;96216.91;1026398;28;20023;-69
2023/04/05 00:52:32;;;;;;;10.52;5.35;;;;;;;-2.67;100.00;96215.31;1022339;29;20031;-68
2023/04/05 00:53:03;;;;;;;13.50;5.67;;;;;;;-2.66;100.00;96216.91;1018307;29;20626;-70
2023/04/05 00:53:33;;;;;;;8.20;5.87;;;;;;;-2.67;100.00;96209.38;1022730;28;20019;-69
2023/04/05 00:54:04;;;;;;;10.37;6.07;;;;;;;-2.64;100.00;96215.00;1018323;29;20493;-69
2023/04/05 00:54:34;;;;;;;11.73;5.57;;;;;;;-2.64;100.00;96212.41;1022119;28;20102;-70
2023/04/05 00:55:06;;;;;;;11.37;5.40;;;;;;;-2.71;100.00;96195.28;1026051;28;20019;-69
2023/04/05 00:55:36;;;;;;;7.30;4.72;;;;;;;-2.70;100.00;96199.44;1026350;28;20022;-68
2023/04/05 00:56:07;;;;;;;13.60;5.63;;;;;;;-2.64;100.00;96214.19;1022694;29;20039;-70
2023/04/05 00:56:37;;;;;;;13.33;6.50;;;;;;;-2.71;100.00;96197.84;1018277;29;20050;-70
2023/04/05 00:57:07;;;;;;;17.77;7.53;;;;;;;-2.63;100.00;96208.06;1010534;29;20024;-69
2023/04/05 00:57:38;;;;;;;21.27;8.00;;;;;;;-2.62;100.00;96204.53;1014876;29;20028;-69
2023/04/05 00:58:09;;;;;;;21.90;8.50;;;;;;;-2.62;100.00;96201.97;1018391;29;20024;-68
2023/04/05 00:58:41;;;;;;;26.80;10.20;;;;;;;-2.66;100.00;96198.13;1022451;28;20078;-71
2023/04/05 00:59:11;;;;;;;29.80;10.60;;;;;;;-2.64;100.00;96209.84;1029898;28;20797;-69
2023/04/05 00:59:42;;;;;;;24.93;10.00;;;;;;;-2.64;100.00;96199.56;1022356;29;20039;-69
2023/04/05 01:00:14;;;;;;;29.07;11.07;;;;;;;-2.64;100.00;96202.16;1018476;29;20020;-68
2023/04/05 01:01:06;;;;;;;24.67;9.43;;;;;;;-2.66;100.00;96193.78;1018383;29;20079;-69
2023/04/05 01:01:39;;;;;;;32.97;11.88;;;;;;;-2.63;100.00;96201.16;1022516;28;20034;-70
2023/04/05 01:02:15;;;;;;;33.53;10.98;;;;;;;-2.62;100.00;96197.66;1025600;28;20101;-69
2023/04/05 01:02:54;;;;;;;31.05;11.05;;;;;;;-2.63;100.00;96195.25;1022662;29;20099;-69
2023/04/05 01:03:26;;;;;;;34.63;10.57;;;;;;;-2.64;100.00;96189.31;1018890;29;20110;-68
2023/04/05 01:04:01;;;;;;;35.65;12.55;;;;;;;-2.65;100.00;96192.84;1030119;28;20512;-68
2023/04/05 01:04:32;;;;;;;30.17;10.63;;;;;;;-2.65;100.00;96187.72;1021617;29;20541;-69
2023/04/05 01:05:04;;;;;;;28.43;10.33;;;;;;;-2.61;100.00;96191.53;1017864;29;20038;-69
2023/04/05 01:05:45;;;;;;;21.13;9.27;;;;;;;-2.64;100.00;96197.00;1022513;29;20050;-68
2023/04/05 01:06:34;;;;;;;19.48;9.10;;;;;;;-2.62;100.00;96189.94;1022139;29;20031;-69
2023/04/05 01:07:16;;;;;;;23.00;9.80;;;;;;;-2.62;100.00;96189.94;1022413;28;20026;-69
2023/04/05 01:08:00;;;;;;;18.55;8.50;;;;;;;-2.62;100.00;96192.50;1022196;29;20086;-68
2023/04/05 01:08:36;;;;;;;20.75;8.68;;;;;;;-2.67;100.00;96179.38;1020210;29;20469;-68
2023/04/05 01:09:33;;;;;;;21.90;8.25;;;;;;;-2.62;100.00;96186.56;1018188;29;20030;-68
2023/04/05 01:10:05;;;;;;;15.93;7.28;;;;;;;-2.62;100.00;96186.56;1018508;29;20028;-68
2023/04/05 01:10:38;;;;;;;16.83;6.75;;;;;;;-2.61;100.00;96183.03;1022055;29;20012;-70
2023/04/05 01:11:08;;;;;;;16.15;7.13;;;;;;;-2.62;100.00;96186.56;1022565;29;20134;-68
2023/04/05 01:11:39;;;;;;;14.17;6.97;;;;;;;-2.59;100.00;96190.56;1018282;29;20514;-68
2023/04/05 01:12:09;;;;;;;16.60;7.00;;;;;;;-2.61;100.00;96185.59;1018135;29;20031;-69
2023/04/05 01:12:40;;;;;;;16.20;6.67;;;;;;;-2.58;100.00;96187.84;1018604;29;20027;-69
2023/04/05 01:13:10;;;;;;;13.60;6.83;;;;;;;-2.63;100.00;96188.31;1018364;29;20023;-68
2023/04/05 01:13:44;;;;;;;15.33;6.57;;;;;;;-2.58;100.00;96192.16;1019816;29;20027;-68
2023/04/05 01:14:14;;;;;;;17.73;8.02;;;;;;;-2.59;100.00;96185.41;1022519;28;20114;-69
2023/04/05 01:14:54;;;;;;;15.73;7.40;;;;;;;-2.59;100.00;96185.41;1025504;28;20023;-68
2023/04/05 01:15:24;;;;;;;19.30;8.10;;;;;;;-2.61;100.00;96188.97;1023533;28;20038;-69
2023/04/05 01:15:55;;;;;;;25.70;9.67;;;;;;;-2.61;100.00;96188.97;1022277;28;20622;-68
2023/04/05 01:16:26;;;;;;;25.37;9.70;;;;;;;-2.62;100.00;96184.81;1022434;29;20070;-71
2023/04/05 01:16:57;;;;;;;32.20;10.97;;;;;;;-2.72;100.00;96171.34;1022235;28;20027;-69
2023/04/05 01:17:28;;;;;;;37.08;13.18;;;;;;;-2.65;100.00;96180.00;1022083;28;20042;-69
2023/04/05 01:18:01;;;;;;;41.28;13.18;;;;;;;-2.67;100.00;96176.78;1022537;29;20046;-69
2023/04/05 01:18:35;;;;;;;40.55;12.88;;;;;;;-2.68;100.00;96176.97;1022248;29;20551;-68
2023/04/05 01:19:08;;;;;;;39.65;13.05;;;;;;;-2.69;100.00;96181.28;1024680;28;20027;-70
2023/04/05 01:19:40;;;;;;;40.00;14.05;;;;;;;-2.73;100.00;96174.91;1022106;29;20015;-69
2023/04/05 01:20:11;;;;;;;34.85;11.13;;;;;;;-2.67;100.00;96188.84;1018230;29;20110;-69
2023/04/05 01:20:52;;;;;;;30.10;11.77;;;;;;;-2.68;100.00;96188.03;1019650;29;20379;-68
2023/04/05 01:21:37;;;;;;;;;;;;;;;-2.69;100.00;96186.44;1019127;29;20084;-69
2023/04/05 01:22:28;;;;;;;28.60;11.30;;;;;;;-2.73;100.00;96182.59;1026016;28;19929;-69
2023/04/05 01:22:59;;;;;;;;;;;;;;;-2.73;100.00;96185.16;1020336;29;20028;-72
2023/04/05 01:24:31;;;;;;;25.83;9.90;;;;;;;-2.71;100.00;96182.44;1022650;29;20404;-69
2023/04/05 01:25:11;;;;;;;;;;;;;;;-2.71;100.00;96182.44;1014300;29;20521;-68
2023/04/05 01:26:23;;;;;;;16.38;7.40;;;;;;;-2.71;100.00;96177.31;1019373;29;19913;-68
2023/04/05 01:27:15;;;;;;;21.27;7.45;;;;;;;-2.70;100.00;96184.84;1006260;29;20045;-68
2023/04/05 01:27:57;;;;;;;12.15;6.15;;;;;;;-2.73;100.00;96174.91;1011290;29;20032;-69
2023/04/05 01:29:02;;;;;;;15.50;6.80;;;;;;;-2.74;100.00;96178.44;1010027;29;20032;-69
2023/04/05 01:29:49;;;;;;;11.45;5.40;;;;;;;-2.75;100.00;96182.00;1006307;29;20698;-69
2023/04/05 01:30:21;;;;;;;9.68;5.80;;;;;;;-2.74;100.00;96186.16;1008988;29;20148;-69
2023/04/05 01:31:14;;;;;;;10.90;6.40;;;;;;;-2.77;100.00;96178.78;1002637;29;20037;-69
2023/04/05 01:31:52;;;;;;;15.10;7.32;;;;;;;-2.76;100.00;96177.81;1006697;29;20048;-69
2023/04/05 01:32:42;;;;;;;11.55;6.28;;;;;;;-2.77;100.00;96183.13;1006236;29;20140;-68
2023/04/05 01:33:18;;;;;;;10.38;6.13;;;;;;;-2.76;100.00;96188.06;1026224;28;20035;-69
2023/04/05 01:34:04;;;;;;;13.63;5.97;;;;;;;-2.78;100.00;96184.88;1026122;28;20723;-69
2023/04/05 01:34:41;;;;;;;10.57;6.53;;;;;;;-2.78;100.00;96187.47;1025347;28;20030;-69
2023/04/05 01:35:28;;;;;;;9.38;5.93;;;;;;;-2.78;100.00;96182.31;1025681;28;20072;-68
2023/04/05 01:36:02;;;;;;;12.07;5.85;;;;;;;-2.82;100.00;96181.03;1022336;29;20496;-69
2023/04/05 01:36:39;;;;;;;10.48;5.65;;;;;;;-2.80;100.00;96176.53;1022061;28;20055;-68
2023/04/05 01:37:14;;;;;;;9.00;5.53;;;;;;;-2.82;100.00;96173.31;1026465;28;20034;-69
2023/04/05 01:37:48;;;;;;;8.75;5.95;;;;;;;-2.79;100.00;96179.91;1026232;28;20103;-69
2023/04/05 01:38:24;;;;;;;9.93;5.70;;;;;;;-2.82;100.00;96178.47;1022556;29;20078;-70
2023/04/05 01:38:54;;;;;;;8.15;5.68;;;;;;;-2.80;100.00;96176.53;1018325;29;20031;-69
2023/04/05 01:39:25;;;;;;;9.60;5.37;;;;;;;-2.84;100.00;96172.72;1018148;29;20042;-68
2023/04/05 01:39:55;;;;;;;11.07;5.93;;;;;;;-2.81;100.00;96172.38;1018486;29;20667;-69
2023/04/05 01:40:26;;;;;;;10.03;5.40;;;;;;;-2.85;100.00;96165.97;1018115;29;20090;-68
2023/04/05 01:40:56;;;;;;;9.57;6.00;;;;;;;-2.80;100.00;96173.97;1018566;29;20027;-70
2023/04/05 01:41:27;;;;;;;6.53;5.33;;;;;;;-2.79;100.00;96175.56;1018264;29;20023;-69
2023/04/05 01:41:58;;;;;;;10.17;5.73;;;;;;;-2.85;100.00;96163.38;1018192;29;20048;-70
2023/04/05 01:42:29;;;;;;;8.27;5.30;;;;;;;-2.80;100.00;96173.97;1014591;29;20533;-68
2023/04/05 01:43:01;;;;;;;9.60;5.67;;;;;;;-2.80;100.00;96173.97;1019312;28;20047;-68
2023/04/05 01:43:31;;;;;;;8.52;5.65;;;;;;;-2.79;100.00;96177.34;1022569;28;20031;-68
2023/04/05 01:44:02;;;;;;;10.67;5.70;;;;;;;-2.86;100.00;96164.38;1022983;28;20510;-68
2023/04/05 01:44:32;;;;;;;7.40;5.53;;;;;;;-2.80;100.00;96173.97;1025219;28;20690;-69
2023/04/05 01:45:03;;;;;;;6.23;5.10;;;;;;;-2.79;100.00;96170.44;1021676;29;20120;-70
2023/04/05 01:45:33;;;;;;;9.27;5.60;;;;;;;-2.79;100.00;96173.00;1025983;28;20075;-69
2023/04/05 01:46:04;;;;;;;8.37;5.47;;;;;;;-2.79;100.00;96183.25;1026310;28;20027;-68
2023/04/05 01:46:35;;;;;;;9.20;5.67;;;;;;;-2.80;100.00;96171.41;1026300;28;20031;-68
2023/04/05 01:47:05;;;;;;;7.37;5.27;;;;;;;-2.80;100.00;96168.84;1029990;28;20027;-68
2023/04/05 01:47:36;;;;;;;9.10;5.60;;;;;;;-2.79;100.00;96170.44;1026140;28;20054;-68
2023/04/05 01:48:06;;;;;;;11.27;5.60;;;;;;;-2.80;100.00;96173.97;1022394;29;20023;-68
2023/04/05 01:48:37;;;;;;;9.50;5.53;;;;;;;-2.79;100.00;96178.13;1022190;29;20485;-69
2023/04/05 01:49:07;;;;;;;8.27;6.03;;;;;;;-2.81;100.00;96172.38;1022444;28;20098;-70
2023/04/05 01:49:37;;;;;;;9.53;5.50;;;;;;;-2.88;100.00;96156.06;1022234;28;20026;-70
2023/04/05 01:50:08;;;;;;;12.20;6.73;;;;;;;-2.84;100.00;96162.44;1025423;28;20031;-69
2023/04/05 01:50:39;;;;;;;9.57;5.50;;;;;;;-2.90;100.00;96157.97;1026480;28;20035;-68
2023/04/05 01:51:09;;;;;;;11.10;5.57;;;;;;;-2.82;100.00;96165.63;1026239;28;20444;-68
2023/04/05 01:51:40;;;;;;;10.87;5.50;;;;;;;-2.82;100.00;96170.75;1022523;29;20027;-68
2023/04/05 01:52:11;;;;;;;7.65;5.50;;;;;;;-2.92;100.00;96154.75;1023933;28;20035;-68
2023/04/05 01:52:41;;;;;;;9.70;5.97;;;;;;;-2.85;100.00;96166.78;1015854;29;20039;-68
2023/04/05 01:53:12;;;;;;;10.50;5.67;;;;;;;-2.85;100.00;96171.09;1015863;29;20032;-69
2023/04/05 01:53:42;;;;;;;10.33;5.20;;;;;;;-2.86;100.00;96172.88;1017872;29;20031;-69
2023/04/05 01:54:13;;;;;;;11.77;6.83;;;;;;;-2.86;100.00;96159.22;1019664;28;20031;-69
2023/04/05 01:54:46;;;;;;;12.77;6.40;;;;;;;-2.87;100.00;96165.34;1026371;28;20035;-68
2023/04/05 01:55:16;;;;;;;8.80;5.95;;;;;;;-2.88;100.00;96171.47;1026143;28;20873;-69
2023/04/05 01:55:47;;;;;;;12.63;6.60;;;;;;;-2.87;100.00;96167.91;1030318;28;20037;-69
2023/04/05 01:56:17;;;;;;;10.47;6.17;;;;;;;-2.89;100.00;96169.84;1030944;28;20421;-71
2023/04/05 01:56:48;;;;;;;8.60;5.80;;;;;;;-2.89;100.00;96169.84;1034180;28;20488;-70
2023/04/05 01:57:18;;;;;;;8.70;5.77;;;;;;;-2.91;100.00;96166.66;1034391;28;20514;-69
2023/04/05 01:57:49;;;;;;;11.17;5.90;;;;;;;-2.92;100.00;96162.47;1034315;28;20037;-70
2023/04/05 01:58:19;;;;;;;11.97;5.70;;;;;;;-2.90;100.00;96168.25;1030085;28;20065;-69
2023/04/05 01:58:50;;;;;;;9.03;5.40;;;;;;;-2.91;100.00;96166.66;1030562;28;20053;-68
2023/04/05 01:59:20;;;;;;;10.70;6.10;;;;;;;-2.93;100.00;96163.44;1030032;28;20159;-68
2023/04/05 01:59:51;;;;;;;11.67;6.50;;;;;;;-2.93;100.00;96169.38;1030162;28;20435;-69
2023/04/05 02:00:21;;;;;;;9.70;5.33;;;;;;;-3.11;100.00;96143.94;1030353;28;20041;-69
2023/04/05 02:00:55;;;;;;;9.60;5.53;;;;;;;-2.97;100.00;96162.19;1022108;29;20042;-69
2023/04/05 02:01:25;;;;;;;9.15;5.72;;;;;;;-2.99;100.00;96157.19;1022215;29;20026;-70
2023/04/05 02:01:56;;;;;;;9.43;6.30;;;;;;;-2.95;100.00;96163.63;1020443;29;20039;-68
2023/04/05 02:02:26;;;;;;;9.70;5.67;;;;;;;-2.96;100.00;96164.56;1022132;29;20524;-68
2023/04/05 02:02:57;;;;;;;9.87;5.67;;;;;;;-2.98;100.00;96160.59;1022691;28;20035;-70
2023/04/05 02:03:27;;;;;;;10.87;6.17;;;;;;;-3.04;100.00;96149.22;1025920;28;20038;-70
2023/04/05 02:03:58;;;;;;;9.07;5.80;;;;;;;-2.98;100.00;96165.72;1026125;28;20031;-68
2023/04/05 02:04:28;;;;;;;9.57;5.90;;;;;;;-2.99;100.00;96161.53;1025761;28;20055;-68
2023/04/05 02:04:59;;;;;;;9.07;5.40;;;;;;;-2.98;100.00;96163.16;1021908;29;20674;-69
2023/04/05 02:05:29;;;;;;;8.80;6.03;;;;;;;-2.99;100.00;96159.78;1014390;29;20055;-70
2023/04/05 02:06:00;;;;;;;9.43;6.03;;;;;;;-2.98;100.00;96163.16;1022178;29;20028;-68
2023/04/05 02:06:31;;;;;;;8.57;5.80;;;;;;;-3.00;100.00;96162.50;1022147;28;20739;-68
2023/04/05 02:07:02;;;;;;;8.17;5.57;;;;;;;-3.04;100.00;96156.13;1022527;28;20043;-68
2023/04/05 02:07:33;;;;;;;11.95;6.15;;;;;;;-2.99;100.00;96159.78;1018296;29;20154;-71
2023/04/05 02:08:03;;;;;;;9.57;5.63;;;;;;;-3.00;100.00;96160.75;1026105;28;20039;-69
2023/04/05 02:08:34;;;;;;;8.97;6.10;;;;;;;-3.05;100.00;96154.50;1026413;28;20019;-70
2023/04/05 02:09:04;;;;;;;7.70;5.27;;;;;;;-3.01;100.00;96166.06;1026010;28;20083;-68
2023/04/05 02:09:34;;;;;;;10.00;5.90;;;;;;;-3.02;100.00;96161.88;1026369;28;20034;-69
2023/04/05 02:10:06;;;;;;;9.00;5.90;;;;;;;-3.10;100.00;96148.09;1025999;28;20029;-69
2023/04/05 02:10:36;;;;;;;12.70;6.05;;;;;;;-3.02;100.00;96159.31;1021997;28;20027;-68
2023/04/05 02:11:06;;;;;;;10.17;5.90;;;;;;;-3.02;100.00;96154.97;1026423;28;20026;-69
2023/04/05 02:11:37;;;;;;;9.97;6.10;;;;;;;-3.04;100.00;96153.56;1021965;29;20031;-69
2023/04/05 02:12:07;;;;;;;8.60;6.13;;;;;;;-3.02;100.00;96156.75;1022151;28;20389;-69
2023/04/05 02:12:38;;;;;;;9.23;6.20;;;;;;;-3.06;100.00;96153.72;1026537;28;20081;-69
2023/04/05 02:13:08;;;;;;;7.77;5.73;;;;;;;-3.06;100.00;96158.03;1026416;28;20059;-68
2023/04/05 02:13:39;;;;;;;10.80;5.67;;;;;;;-3.09;100.00;96152.25;1030286;28;20026;-68
2023/04/05 02:14:09;;;;;;;9.13;5.93;;;;;;;-3.16;100.00;96143.63;1025975;28;20054;-68
2023/04/05 02:14:40;;;;;;;8.87;5.63;;;;;;;-3.08;100.00;96155.66;1017605;29;20024;-71
2023/04/05 02:15:11;;;;;;;10.23;6.37;;;;;;;-3.08;100.00;96160.78;1018349;29;20496;-68
2023/04/05 02:15:49;;;;;;;8.63;5.87;;;;;;;-3.08;100.00;96153.88;1021835;28;20016;-69
2023/04/05 02:16:19;;;;;;;11.15;5.47;;;;;;;-3.14;100.00;96146.84;1022153;29;20082;-69
2023/04/05 02:16:52;;;;;;;8.13;5.47;;;;;;;-3.10;100.00;96150.69;1023481;28;20121;-69
2023/04/05 02:17:23;;;;;;;9.43;5.80;;;;;;;-3.10;100.00;96148.09;1026024;28;20766;-69
2023/04/05 02:17:53;;;;;;;8.80;5.97;;;;;;;-3.09;100.00;96147.13;1022843;28;20041;-69
2023/04/05 02:18:28;;;;;;;9.47;5.30;;;;;;;-3.09;100.00;96152.25;1026066;28;20325;-69
2023/04/05 02:18:59;;;;;;;9.80;6.18;;;;;;;-3.16;100.00;96137.72;1025961;28;20030;-68
2023/04/05 02:19:36;;;;;;;11.03;5.73;;;;;;;-3.15;100.00;96142.69;1023066;28;20031;-69
2023/04/05 02:20:07;;;;;;;8.80;5.60;;;;;;;-3.13;100.00;96148.44;1022005;29;20521;-69
2023/04/05 02:20:37;;;;;;;8.82;6.00;;;;;;;-3.11;100.00;96146.53;1020671;29;20585;-68
2023/04/05 02:21:09;;;;;;;8.90;5.50;;;;;;;-3.19;100.00;96132.91;1022958;28;20089;-70
2023/04/05 02:21:39;;;;;;;9.48;5.55;;;;;;;-3.16;100.00;96133.38;1027987;28;20033;-68
2023/04/05 02:22:10;;;;;;;8.47;5.47;;;;;;;-3.17;100.00;96136.91;1026535;28;20113;-69
2023/04/05 02:22:43;;;;;;;14.27;5.70;;;;;;;-3.13;100.00;96140.75;1025756;28;20950;-68
2023/04/05 02:23:14;;;;;;;13.45;5.50;;;;;;;-3.12;100.00;96141.53;1023197;29;20031;-68
2023/04/05 02:23:44;;;;;;;12.77;6.00;;;;;;;-3.17;100.00;96144.63;1015142;29;20039;-68
2023/04/05 02:24:15;;;;;;;8.80;5.60;;;;;;;-3.19;100.00;96133.72;1022815;29;20027;-68
2023/04/05 02:24:45;;;;;;;9.80;5.90;;;;;;;-3.13;100.00;96148.44;1022964;28;20123;-69
2023/04/05 02:25:16;;;;;;;9.27;6.13;;;;;;;-3.17;100.00;96136.91;1022404;28;20020;-68
2023/04/05 02:25:46;;;;;;;9.53;5.83;;;;;;;-3.14;100.00;96141.72;1018679;29;20083;-69
2023/04/05 02:26:17;;;;;;;9.47;5.90;;;;;;;-3.14;100.00;96144.28;1018793;29;20124;-69
2023/04/05 02:26:47;;;;;;;9.40;5.63;;;;;;;-3.15;100.00;96144.47;1018938;29;20039;-68
2023/04/05 02:27:18;;;;;;;9.37;6.23;;;;;;;-3.17;100.00;96138.69;1023408;28;20027;-68
2023/04/05 02:27:48;;;;;;;12.03;5.77;;;;;;;-3.16;100.00;96148.78;1023278;28;20023;-69
2023/04/05 02:28:19;;;;;;;9.33;5.47;;;;;;;-3.16;100.00;96142.84;1023715;28;20027;-69
2023/04/05 02:28:49;;;;;;;9.70;5.87;;;;;;;-3.18;100.00;96137.88;1027974;28;20034;-68
2023/04/05 02:29:20;;;;;;;10.00;5.93;;;;;;;-3.17;100.00;96146.38;1027724;28;20023;-68
2023/04/05 02:29:51;;;;;;;10.47;6.17;;;;;;;-3.18;100.00;96144.78;1031736;28;20026;-69
2023/04/05 02:30:22;;;;;;;9.43;5.35;;;;;;;-3.27;100.00;96131.19;1027945;28;20070;-68